PWSweather.com
Personal Weather Stations
Station Observations
INORDPAS37
Bondues, BonduesFR 59910

BonduesBonduesFR 59910

Lat: 50.7, Lon: 3.09

Elevation: 102

Station Type: Netatmo

http://bondues.meteoamikuze.com

High Low Average
Temperature 43.7°F6.5°C 34.7°F1.5°C 38.4°F3.6°C
Dew Point 33.1°F0.6°C 25.0°F-3.9°C 28.3°F-2.1°C
Winds 6.9 mph 11.1 kmh 1.3 mph 2.1 kmh 4.0 mph WSW6.4 kmh WSW
Wind Gusts 13.6 mph21.9 kmh 3.1 mph5.0 kmh 8.0 mph12.9 kmh
Humidity 77% 65% 72%
Pressure 29.68 in1005.1 mb 29.53 in1000.0 mb -
Precipitation 0.07 in1.8 mm - -
Hour Temp Dew Point Humidity Winds Wind Gusts Pressure Precip Precip Rate Daily Precip Total
12:01 AM 37.0°F2.8°C 27.0°F-2.8°C 72% 2.5 mph WSW4.0 kmh WSW 6.9 mph11.1 kmh 29.61 in1002.7 mb 0.00 in0.0 mm 0.00 in0.0 mm 0.00 in0.0 mm
12:21 AM 36.9°F2.7°C 26.8°F-2.9°C 72% 1.8 mph WSW2.9 kmh WSW 7.4 mph11.9 kmh 29.61 in1002.7 mb 0.00 in0.0 mm 0.00 in0.0 mm 0.00 in0.0 mm
12:41 AM 36.7°F2.6°C 26.6°F-3.0°C 72% 2.5 mph WSW4.0 kmh WSW 4.9 mph7.9 kmh 29.61 in1002.7 mb 0.00 in0.0 mm 0.00 in0.0 mm 0.00 in0.0 mm
01:01 AM 36.1°F2.3°C 26.1°F-3.3°C 72% 1.8 mph SW2.9 kmh SW 3.8 mph6.1 kmh 29.61 in1002.7 mb 0.00 in0.0 mm 0.00 in0.0 mm 0.00 in0.0 mm
01:21 AM 35.8°F2.1°C 26.1°F-3.3°C 73% 1.3 mph WSW2.1 kmh WSW 3.1 mph5.0 kmh 29.61 in1002.7 mb 0.00 in0.0 mm 0.00 in0.0 mm 0.00 in0.0 mm
01:42 AM 35.2°F1.8°C 25.5°F-3.6°C 73% 1.8 mph SW2.9 kmh SW 4.3 mph6.9 kmh 29.59 in1002.0 mb 0.00 in0.0 mm 0.00 in0.0 mm 0.00 in0.0 mm
02:08 AM 34.9°F1.6°C 25.2°F-3.8°C 73% 2.5 mph SW4.0 kmh SW 4.3 mph6.9 kmh 29.59 in1002.0 mb 0.00 in0.0 mm 0.00 in0.0 mm 0.00 in0.0 mm
02:28 AM 35.1°F1.7°C 25.3°F-3.7°C 73% 3.8 mph SW6.1 kmh SW 7.4 mph11.9 kmh 29.58 in1001.7 mb 0.00 in0.0 mm 0.00 in0.0 mm 0.00 in0.0 mm
02:48 AM 35.6°F2.0°C 25.9°F-3.4°C 73% 3.8 mph WSW6.1 kmh WSW 8.7 mph14.0 kmh 29.58 in1001.7 mb 0.00 in0.0 mm 0.00 in0.0 mm 0.00 in0.0 mm
03:08 AM 35.6°F2.0°C 25.9°F-3.4°C 73% 3.1 mph SW5.0 kmh SW 8.1 mph13.0 kmh 29.58 in1001.7 mb 0.00 in0.0 mm 0.00 in0.0 mm 0.00 in0.0 mm
03:29 AM 35.2°F1.8°C 25.5°F-3.6°C 73% 1.8 mph SW2.9 kmh SW 4.3 mph6.9 kmh 29.57 in1001.4 mb 0.00 in0.0 mm 0.00 in0.0 mm 0.00 in0.0 mm
03:48 AM 34.9°F1.6°C 25.2°F-3.8°C 73% 2.5 mph SW4.0 kmh SW 5.6 mph9.0 kmh 29.57 in1001.4 mb 0.00 in0.0 mm 0.00 in0.0 mm 0.00 in0.0 mm
04:09 AM 34.9°F1.6°C 25.2°F-3.8°C 73% 2.5 mph SW4.0 kmh SW 6.9 mph11.1 kmh 29.55 in1000.7 mb 0.00 in0.0 mm 0.00 in0.0 mm 0.00 in0.0 mm
04:24 AM 34.7°F1.5°C 25.0°F-3.9°C 73% 2.5 mph SW4.0 kmh SW 4.9 mph7.9 kmh 29.55 in1000.7 mb 0.00 in0.0 mm 0.00 in0.0 mm 0.00 in0.0 mm
04:45 AM 34.7°F1.5°C 25.0°F-3.9°C 73% 2.5 mph SW4.0 kmh SW 4.9 mph7.9 kmh 29.54 in1000.3 mb 0.00 in0.0 mm 0.00 in0.0 mm 0.00 in0.0 mm
05:04 AM 34.9°F1.6°C 25.2°F-3.8°C 73% 3.8 mph SSW6.1 kmh SSW 8.1 mph13.0 kmh 29.54 in1000.3 mb 0.00 in0.0 mm 0.00 in0.0 mm 0.00 in0.0 mm
05:25 AM 35.4°F1.9°C 26.1°F-3.3°C 74% 3.8 mph SW6.1 kmh SW 7.4 mph11.9 kmh 29.54 in1000.3 mb 0.00 in0.0 mm 0.00 in0.0 mm 0.00 in0.0 mm
05:45 AM 35.8°F2.1°C 26.4°F-3.1°C 74% 3.8 mph SW6.1 kmh SW 10.5 mph16.9 kmh 29.54 in1000.3 mb 0.00 in0.0 mm 0.00 in0.0 mm 0.00 in0.0 mm
06:05 AM 36.3°F2.4°C 27.0°F-2.8°C 74% 5.6 mph WSW9.0 kmh WSW 12.5 mph20.1 kmh 29.54 in1000.3 mb 0.00 in0.0 mm 0.00 in0.0 mm 0.00 in0.0 mm
06:25 AM 36.5°F2.5°C 27.1°F-2.7°C 74% 4.3 mph WSW6.9 kmh WSW 9.8 mph15.8 kmh 29.53 in1000.0 mb 0.00 in0.0 mm 0.00 in0.0 mm 0.00 in0.0 mm
06:44 AM 36.5°F2.5°C 27.1°F-2.7°C 74% 4.9 mph WSW7.9 kmh WSW 11.9 mph19.2 kmh 29.54 in1000.3 mb 0.00 in0.0 mm 0.00 in0.0 mm 0.00 in0.0 mm
07:05 AM 36.1°F2.3°C 26.8°F-2.9°C 74% 5.6 mph WSW9.0 kmh WSW 11.9 mph19.2 kmh 29.53 in1000.0 mb 0.02 in0.5 mm 0.02 in0.5 mm 0.02 in0.5 mm
07:27 AM 36.0°F2.2°C 26.6°F-3.0°C 74% 3.8 mph WSW6.1 kmh WSW 8.7 mph14.0 kmh 29.53 in1000.0 mb 0.02 in0.5 mm 0.00 in0.0 mm 0.02 in0.5 mm
07:47 AM 36.0°F2.2°C 27.0°F-2.8°C 75% 3.8 mph WSW6.1 kmh WSW 8.1 mph13.0 kmh 29.53 in1000.0 mb 0.02 in0.5 mm 0.00 in0.0 mm 0.02 in0.5 mm
08:04 AM 36.1°F2.3°C 27.1°F-2.7°C 75% 4.3 mph WSW6.9 kmh WSW 8.1 mph13.0 kmh 29.54 in1000.3 mb 0.01 in0.3 mm 0.00 in0.0 mm 0.03 in0.8 mm
08:23 AM 36.3°F2.4°C 27.3°F-2.6°C 75% 4.3 mph WSW6.9 kmh WSW 9.8 mph15.8 kmh 29.54 in1000.3 mb 0.01 in0.3 mm 0.00 in0.0 mm 0.03 in0.8 mm
08:44 AM 36.3°F2.4°C 27.3°F-2.6°C 75% 5.6 mph WSW9.0 kmh WSW 13.6 mph21.9 kmh 29.54 in1000.3 mb 0.02 in0.5 mm 0.01 in0.3 mm 0.03 in0.8 mm
09:04 AM 36.5°F2.5°C 27.5°F-2.5°C 75% 4.3 mph SW6.9 kmh SW 11.9 mph19.2 kmh 29.55 in1000.7 mb 0.00 in0.0 mm 0.00 in0.0 mm 0.03 in0.8 mm
09:24 AM 36.5°F2.5°C 27.9°F-2.3°C 76% 4.9 mph SW7.9 kmh SW 11.2 mph18.0 kmh 29.55 in1000.7 mb 0.00 in0.0 mm 0.00 in0.0 mm 0.04 in1.0 mm
09:44 AM 36.7°F2.6°C 28.0°F-2.2°C 76% 4.3 mph WSW6.9 kmh WSW 10.5 mph16.9 kmh 29.56 in1001.0 mb 0.01 in0.3 mm 0.01 in0.3 mm 0.04 in1.0 mm
10:04 AM 37.0°F2.8°C 28.4°F-2.0°C 76% 3.8 mph WSW6.1 kmh WSW 9.4 mph15.1 kmh 29.56 in1001.0 mb 0.01 in0.3 mm 0.00 in0.0 mm 0.04 in1.0 mm
10:24 AM 37.2°F2.9°C 28.6°F-1.9°C 76% 3.8 mph WSW6.1 kmh WSW 8.1 mph13.0 kmh 29.57 in1001.4 mb 0.01 in0.3 mm 0.00 in0.0 mm 0.04 in1.0 mm
10:44 AM 37.4°F3.0°C 28.8°F-1.8°C 76% 3.8 mph W6.1 kmh W 9.4 mph15.1 kmh 29.58 in1001.7 mb 0.01 in0.3 mm 0.01 in0.3 mm 0.05 in1.3 mm
11:05 AM 37.8°F3.2°C 28.9°F-1.7°C 76% 3.1 mph W5.0 kmh W 5.6 mph9.0 kmh 29.59 in1002.0 mb 0.01 in0.3 mm 0.00 in0.0 mm 0.05 in1.3 mm
11:25 AM 38.5°F3.6°C 29.7°F-1.3°C 76% 2.5 mph WSW4.0 kmh WSW 6.9 mph11.1 kmh 29.59 in1002.0 mb 0.01 in0.3 mm 0.00 in0.0 mm 0.05 in1.3 mm
11:45 AM 40.1°F4.5°C 31.6°F-0.2°C 77% 4.9 mph W7.9 kmh W 11.2 mph18.0 kmh 29.59 in1002.0 mb 0.00 in0.0 mm 0.00 in0.0 mm 0.05 in1.3 mm
12:05 PM 40.6°F4.8°C 31.8°F-0.1°C 76% 3.8 mph W6.1 kmh W 9.4 mph15.1 kmh 29.59 in1002.0 mb 0.00 in0.0 mm 0.00 in0.0 mm 0.05 in1.3 mm
12:25 PM 41.7°F5.4°C 32.9°F0.5°C 76% 4.9 mph WNW7.9 kmh WNW 13.6 mph21.9 kmh 29.60 in1002.4 mb 0.00 in0.0 mm 0.00 in0.0 mm 0.05 in1.3 mm
12:45 PM 42.3°F5.7°C 33.1°F0.6°C 75% 3.8 mph WNW6.1 kmh WNW 11.2 mph18.0 kmh 29.60 in1002.4 mb 0.00 in0.0 mm 0.00 in0.0 mm 0.05 in1.3 mm
01:05 PM 41.9°F5.5°C 32.4°F0.2°C 74% 3.1 mph WNW5.0 kmh WNW 6.9 mph11.1 kmh 29.60 in1002.4 mb 0.00 in0.0 mm 0.00 in0.0 mm 0.05 in1.3 mm
01:26 PM 42.6°F5.9°C 32.5°F0.3°C 73% 3.1 mph W5.0 kmh W 8.1 mph13.0 kmh 29.60 in1002.4 mb 0.00 in0.0 mm 0.00 in0.0 mm 0.05 in1.3 mm
01:45 PM 43.3°F6.3°C 32.9°F0.5°C 72% 4.9 mph W7.9 kmh W 10.5 mph16.9 kmh 29.60 in1002.4 mb 0.00 in0.0 mm 0.00 in0.0 mm 0.05 in1.3 mm
02:06 PM 42.8°F6.0°C 32.0°F0.0°C 71% 4.9 mph W7.9 kmh W 9.8 mph15.8 kmh 29.61 in1002.7 mb 0.00 in0.0 mm 0.00 in0.0 mm 0.05 in1.3 mm
02:26 PM 42.4°F5.8°C 31.6°F-0.2°C 71% 4.9 mph WNW7.9 kmh WNW 11.9 mph19.2 kmh 29.61 in1002.7 mb 0.00 in0.0 mm 0.00 in0.0 mm 0.05 in1.3 mm
02:46 PM 43.2°F6.2°C 31.6°F-0.2°C 69% 5.6 mph W9.0 kmh W 13.0 mph20.9 kmh 29.61 in1002.7 mb 0.00 in0.0 mm 0.00 in0.0 mm 0.05 in1.3 mm
03:07 PM 43.2°F6.2°C 31.6°F-0.2°C 69% 3.8 mph W6.1 kmh W 11.2 mph18.0 kmh 29.61 in1002.7 mb 0.00 in0.0 mm 0.00 in0.0 mm 0.05 in1.3 mm
03:27 PM 43.3°F6.3°C 30.4°F-0.9°C 65% 6.9 mph W11.1 kmh W 13.0 mph20.9 kmh 29.61 in1002.7 mb 0.00 in0.0 mm 0.00 in0.0 mm 0.05 in1.3 mm
03:47 PM 43.3°F6.3°C 31.5°F-0.3°C 68% 4.3 mph W6.9 kmh W 9.8 mph15.8 kmh 29.62 in1003.0 mb 0.00 in0.0 mm 0.00 in0.0 mm 0.05 in1.3 mm
04:07 PM 43.5°F6.4°C 30.6°F-0.8°C 65% 4.3 mph W6.9 kmh W 12.5 mph20.1 kmh 29.62 in1003.0 mb 0.00 in0.0 mm 0.00 in0.0 mm 0.05 in1.3 mm
04:28 PM 43.7°F6.5°C 30.6°F-0.8°C 65% 4.3 mph W6.9 kmh W 9.4 mph15.1 kmh 29.62 in1003.0 mb 0.00 in0.0 mm 0.00 in0.0 mm 0.05 in1.3 mm
04:47 PM 42.1°F5.6°C 29.1°F-1.6°C 65% 3.1 mph W5.0 kmh W 8.1 mph13.0 kmh 29.63 in1003.4 mb 0.00 in0.0 mm 0.00 in0.0 mm 0.05 in1.3 mm
05:05 PM 40.8°F4.9°C 28.6°F-1.9°C 67% 3.1 mph W5.0 kmh W 8.7 mph14.0 kmh 29.63 in1003.4 mb 0.00 in0.0 mm 0.00 in0.0 mm 0.05 in1.3 mm
05:25 PM 40.3°F4.6°C 28.6°F-1.9°C 68% 2.5 mph W4.0 kmh W 5.6 mph9.0 kmh 29.64 in1003.7 mb 0.00 in0.0 mm 0.00 in0.0 mm 0.05 in1.3 mm
05:45 PM 39.9°F4.4°C 28.2°F-2.1°C 68% 2.5 mph W4.0 kmh W 4.3 mph6.9 kmh 29.64 in1003.7 mb 0.00 in0.0 mm 0.00 in0.0 mm 0.05 in1.3 mm
06:05 PM 39.4°F4.1°C 27.7°F-2.4°C 68% 1.8 mph WSW2.9 kmh WSW 3.8 mph6.1 kmh 29.64 in1003.7 mb 0.00 in0.0 mm 0.00 in0.0 mm 0.05 in1.3 mm
06:25 PM 38.8°F3.8°C 27.5°F-2.5°C 69% 1.8 mph SW2.9 kmh SW 3.8 mph6.1 kmh 29.65 in1004.1 mb 0.00 in0.0 mm 0.00 in0.0 mm 0.05 in1.3 mm
06:45 PM 38.3°F3.5°C 27.0°F-2.8°C 69% 1.8 mph SW2.9 kmh SW 3.8 mph6.1 kmh 29.65 in1004.1 mb 0.00 in0.0 mm 0.00 in0.0 mm 0.05 in1.3 mm
07:06 PM 38.7°F3.7°C 27.7°F-2.4°C 70% 2.5 mph W4.0 kmh W 6.9 mph11.1 kmh 29.65 in1004.1 mb 0.00 in0.0 mm 0.01 in0.3 mm 0.06 in1.5 mm
07:26 PM 39.0°F3.9°C 28.0°F-2.2°C 70% 2.5 mph WSW4.0 kmh WSW 4.3 mph6.9 kmh 29.65 in1004.1 mb 0.00 in0.0 mm 0.00 in0.0 mm 0.06 in1.5 mm
07:46 PM 38.8°F3.8°C 27.9°F-2.3°C 70% 3.1 mph WSW5.0 kmh WSW 5.6 mph9.0 kmh 29.65 in1004.1 mb 0.00 in0.0 mm 0.00 in0.0 mm 0.06 in1.5 mm
08:06 PM 39.2°F4.0°C 28.2°F-2.1°C 70% 3.1 mph SW5.0 kmh SW 6.9 mph11.1 kmh 29.66 in1004.4 mb 0.00 in0.0 mm 0.00 in0.0 mm 0.06 in1.5 mm
08:26 PM 39.4°F4.1°C 28.4°F-2.0°C 70% 3.8 mph W6.1 kmh W 7.4 mph11.9 kmh 29.66 in1004.4 mb 0.00 in0.0 mm 0.00 in0.0 mm 0.06 in1.5 mm
08:46 PM 39.9°F4.4°C 28.6°F-1.9°C 69% 3.1 mph W5.0 kmh W 6.9 mph11.1 kmh 29.67 in1004.7 mb 0.00 in0.0 mm 0.00 in0.0 mm 0.06 in1.5 mm
09:05 PM 39.7°F4.3°C 28.4°F-2.0°C 69% 1.8 mph W2.9 kmh W 4.3 mph6.9 kmh 29.67 in1004.7 mb 0.00 in0.0 mm 0.00 in0.0 mm 0.06 in1.5 mm
09:35 PM 39.6°F4.2°C 28.6°F-1.9°C 70% 3.1 mph WNW5.0 kmh WNW 11.2 mph18.0 kmh 29.67 in1004.7 mb 0.00 in0.0 mm 0.00 in0.0 mm 0.06 in1.5 mm
09:55 PM 38.8°F3.8°C 27.9°F-2.3°C 70% 3.1 mph WSW5.0 kmh WSW 9.4 mph15.1 kmh 29.68 in1005.1 mb 0.00 in0.0 mm 0.00 in0.0 mm 0.06 in1.5 mm
10:15 PM 38.3°F3.5°C 27.7°F-2.4°C 71% 3.1 mph W5.0 kmh W 9.4 mph15.1 kmh 29.67 in1004.7 mb 0.00 in0.0 mm 0.00 in0.0 mm 0.06 in1.5 mm
10:35 PM 38.1°F3.4°C 27.5°F-2.5°C 71% 2.5 mph WSW4.0 kmh WSW 5.6 mph9.0 kmh 29.67 in1004.7 mb 0.00 in0.0 mm 0.00 in0.0 mm 0.06 in1.5 mm
10:55 PM 38.1°F3.4°C 27.9°F-2.3°C 72% 3.8 mph WSW6.1 kmh WSW 10.5 mph16.9 kmh 29.67 in1004.7 mb 0.00 in0.0 mm 0.01 in0.3 mm 0.06 in1.5 mm
11:01 PM 38.3°F3.5°C 28.0°F-2.2°C 72% 4.3 mph W6.9 kmh W 12.5 mph20.1 kmh 29.67 in1004.7 mb 0.00 in0.0 mm 0.00 in0.0 mm 0.06 in1.5 mm
11:21 PM 38.5°F3.6°C 28.6°F-1.9°C 73% 4.3 mph WNW6.9 kmh WNW 8.7 mph14.0 kmh 29.68 in1005.1 mb 0.00 in0.0 mm 0.00 in0.0 mm 0.06 in1.5 mm
11:48 PM 37.9°F3.3°C 28.0°F-2.2°C 73% 2.5 mph W4.0 kmh W 8.1 mph13.0 kmh 29.68 in1005.1 mb 0.01 in0.3 mm 0.02 in0.5 mm 0.07 in1.8 mm